Mesa.AZweather.com - Mesa, AZ
   Red Mountain Frwy and University Dr., El 1518 ft.
      --- Wednesday  August 3, 2022 ---
 
 High Temperature ..  99F at 15:12
 Low Temperature ...  80F at 10:31
 
 High Humidity .....  61% at 10:44
 Low Humidity ......  28% at 16:28
 
 High Barometer ....  30.00 at 09:47
 Low Barometer .....  29.80 at 17:12
 
 High Dew Point ....  67F at 11:08
 Low Dew Point .....  57F at 05:08
 
 Rainfall Total ....  0.01 in.
 
 High Wind Speed ...  ---
                     
 
 Time   Temp  Humi  Rain     Baro  DewPt  Wind
00:00,  90F, 36%, 0.00 in, 29.88, 59F, ---
00:30,  88F, 37%, 0.00 in, 29.88, 58F, ---
01:00,  88F, 38%, 0.00 in, 29.88, 59F, ---
01:30,  89F, 36%, 0.00 in, 29.87, 59F, ---
02:00,  90F, 35%, 0.00 in, 29.87, 58F, ---
02:30,  89F, 35%, 0.00 in, 29.87, 58F, ---
03:00,  88F, 37%, 0.00 in, 29.87, 58F, ---
03:30,  87F, 38%, 0.00 in, 29.88, 59F, ---
04:00,  86F, 39%, 0.00 in, 29.88, 58F, ---
04:30,  86F, 39%, 0.00 in, 29.88, 58F, ---
05:00,  86F, 39%, 0.00 in, 29.88, 58F, ---
05:30,  87F, 38%, 0.00 in, 29.90, 59F, ---
06:00,  85F, 40%, 0.00 in, 29.92, 57F, ---
06:30,  85F, 42%, 0.00 in, 29.93, 59F, ---
07:00,  85F, 43%, 0.00 in, 29.94, 59F, ---
07:30,  86F, 42%, 0.00 in, 29.94, 60F, ---
08:00,  90F, 36%, 0.00 in, 29.95, 59F, ---
08:30,  89F, 35%, 0.00 in, 29.95, 58F, ---
09:00,  88F, 35%, 0.00 in, 29.97, 57F, ---
09:30,  87F, 38%, 0.00 in, 29.99, 59F, ---
10:00,  82F, 49%, 0.00 in, 30.00, 61F, ---
10:30,  81F, 57%, 0.00 in, 30.00, 64F, ---
11:00,  80F, 61%, 0.01 in, 29.98, 66F, ---
11:30,  85F, 47%, 0.01 in, 29.95, 62F, ---
12:00,  87F, 43%, 0.01 in, 29.94, 63F, ---
12:30,  88F, 40%, 0.01 in, 29.93, 60F, ---
13:00,  90F, 39%, 0.01 in, 29.92, 61F, ---
13:30,  90F, 37%, 0.01 in, 29.91, 60F, ---
14:00,  91F, 36%, 0.01 in, 29.90, 61F, ---
14:30,  95F, 32%, 0.01 in, 29.88, 61F, ---
15:00,  98F, 29%, 0.01 in, 29.87, 61F, ---
15:30,  98F, 29%, 0.01 in, 29.86, 61F, ---
16:00,  98F, 29%, 0.01 in, 29.84, 61F, ---
16:30,  98F, 28%, 0.01 in, 29.83, 60F, ---
17:00,  98F, 28%, 0.01 in, 29.81, 60F, ---
17:30,  98F, 28%, 0.01 in, 29.81, 60F, ---
18:00,  98F, 28%, 0.01 in, 29.80, 60F, ---
18:30,  97F, 28%, 0.01 in, 29.80, 58F, ---
19:00,  96F, 29%, 0.01 in, 29.82, 59F, ---
19:30,  94F, 30%, 0.01 in, 29.81, 57F, ---
20:00,  92F, 31%, 0.01 in, 29.82, 57F, ---
20:30,  91F, 33%, 0.01 in, 29.83, 58F, ---
21:00,  89F, 35%, 0.01 in, 29.83, 58F, ---
21:30,  88F, 37%, 0.01 in, 29.83, 58F, ---
22:00,  87F, 39%, 0.01 in, 29.85, 60F, ---
22:30,  87F, 41%, 0.01 in, 29.85, 61F, ---
23:00,  86F, 42%, 0.01 in, 29.85, 60F, ---
23:30,  86F, 43%, 0.01 in, 29.85, 61F, ---
23:59,  86F, 43%, 0.01 in, 29.87, 61F, ---